createdAt,value
2019-03-08T00:02:25.446Z,23.57
2019-03-08T00:07:27.677Z,23.85
2019-03-08T00:12:30.599Z,19.37
2019-03-08T00:17:32.063Z,17.40
2019-03-08T00:22:33.718Z,17.57
2019-03-08T00:27:35.260Z,10.40
2019-03-08T00:32:36.779Z,23.90
2019-03-08T00:37:38.323Z,14.30
2019-03-08T00:42:39.643Z,22.67
2019-03-08T00:47:41.051Z,26.45
2019-03-08T00:52:42.540Z,19.12
2019-03-08T00:57:43.976Z,19.15
2019-03-08T01:02:46.027Z,15.25
2019-03-08T01:07:47.642Z,17.82
2019-03-08T01:12:50.654Z,12.58
2019-03-08T01:17:54.210Z,11.33
2019-03-08T01:22:55.697Z,9.93
2019-03-08T01:28:12.779Z,9.58
2019-03-08T01:33:15.129Z,7.50
2019-03-08T01:38:18.061Z,10.03
2019-03-08T01:43:19.452Z,10.68
2019-03-08T01:48:20.987Z,12.28
2019-03-08T01:53:22.572Z,12.78
2019-03-08T01:58:24.256Z,14.50
2019-03-08T02:03:27.697Z,14.68
2019-03-08T02:08:29.092Z,9.30
2019-03-08T02:13:31.058Z,8.95
2019-03-08T02:18:32.610Z,9.48
2019-03-08T02:23:34.013Z,12.60
2019-03-08T02:28:35.439Z,18.75
2019-03-08T02:33:36.980Z,10.20
2019-03-08T02:38:38.317Z,9.68
2019-03-08T02:43:39.707Z,16.02
2019-03-08T02:48:41.106Z,11.33
2019-03-08T02:53:44.319Z,10.50
2019-03-08T02:58:45.794Z,8.83
2019-03-08T03:03:49.571Z,16.42
2019-03-08T03:08:51.287Z,20.88
2019-03-08T03:13:52.576Z,12.93
2019-03-08T03:18:53.893Z,18.00
2019-03-08T03:23:55.318Z,16.87
2019-03-08T03:28:56.786Z,11.30
2019-03-08T03:33:58.108Z,15.35
2019-03-08T03:38:59.563Z,17.17
2019-03-08T03:44:01.870Z,16.93
2019-03-08T03:49:04.138Z,18.23
2019-03-08T03:54:06.937Z,18.32
2019-03-08T03:59:08.461Z,24.65
2019-03-08T04:04:11.049Z,21.93
2019-03-08T04:09:12.703Z,24.60
2019-03-08T04:14:14.287Z,12.78
2019-03-08T04:19:15.892Z,15.03
2019-03-08T04:24:17.384Z,23.73
2019-03-08T04:29:18.883Z,15.85
2019-03-08T04:34:22.311Z,16.10
2019-03-08T04:39:23.728Z,18.50
2019-03-08T04:44:25.412Z,24.37
2019-03-08T04:49:26.856Z,13.30
2019-03-08T04:54:28.269Z,16.50
2019-03-08T04:59:29.694Z,19.05
2019-03-08T05:04:31.481Z,26.97
2019-03-08T05:09:33.107Z,22.02
2019-03-08T05:14:34.776Z,29.70
2019-03-08T05:19:37.712Z,17.52
2019-03-08T05:24:39.402Z,18.50
2019-03-08T05:29:40.742Z,21.77
2019-03-08T05:34:44.180Z,23.27
2019-03-08T05:39:45.641Z,19.45
2019-03-08T05:44:47.060Z,22.25
2019-03-08T05:49:48.529Z,21.50
2019-03-08T05:54:50.598Z,22.17
2019-03-08T05:59:52.222Z,22.13
2019-03-08T06:04:54.496Z,25.95
2019-03-08T06:09:55.905Z,21.70
2019-03-08T06:14:57.331Z,25.65
2019-03-08T06:19:58.705Z,31.25
2019-03-08T06:25:00.316Z,29.20
2019-03-08T06:30:01.853Z,30.48
2019-03-08T06:35:05.478Z,24.20
2019-03-08T06:40:14.322Z,23.05
2019-03-08T06:45:17.139Z,19.52
2019-03-08T06:50:18.946Z,22.35
2019-03-08T06:55:20.361Z,23.22
2019-03-08T07:00:23.719Z,19.80
2019-03-08T07:05:26.742Z,19.70
2019-03-08T07:10:31.308Z,17.20
2019-03-08T07:15:33.490Z,17.57
2019-03-08T07:20:42.721Z,16.12
2019-03-08T07:26:02.247Z,14.50
2019-03-08T07:31:05.763Z,12.25
2019-03-08T07:36:09.638Z,22.93
2019-03-08T07:41:29.012Z,16.93
2019-03-08T07:46:32.288Z,18.50
2019-03-08T07:51:41.465Z,20.30
2019-03-08T07:56:54.139Z,20.90
2019-03-08T08:02:18.584Z,14.53
2019-03-08T08:07:22.006Z,18.52
2019-03-08T08:12:25.278Z,16.42
2019-03-08T08:17:34.658Z,22.45
2019-03-08T08:22:42.206Z,20.72
2019-03-08T08:27:49.633Z,23.60
2019-03-08T08:33:11.121Z,13.93
2019-03-08T08:38:14.494Z,15.48
2019-03-08T08:43:23.749Z,16.80
2019-03-08T08:48:45.039Z,17.20
2019-03-08T08:53:49.079Z,18.15
2019-03-08T08:58:52.468Z,20.17
2019-03-08T09:03:55.695Z,19.00
2019-03-08T09:09:01.837Z,18.98
2019-03-08T09:14:14.150Z,17.05
2019-03-08T09:19:20.443Z,22.32
2019-03-08T09:24:23.765Z,22.05
2019-03-08T09:29:43.745Z,17.75
2019-03-08T09:34:47.230Z,16.93
2019-03-08T09:39:56.813Z,11.22
2019-03-08T09:45:00.286Z,10.93
2019-03-08T09:50:16.605Z,15.58
2019-03-08T09:55:25.698Z,10.95
2019-03-08T10:00:32.148Z,18.92
2019-03-08T10:05:47.230Z,19.17
2019-03-08T10:10:53.172Z,11.53
2019-03-08T10:15:56.527Z,16.65
2019-03-08T10:21:02.715Z,13.83
2019-03-08T10:26:23.064Z,14.35
2019-03-08T10:31:26.336Z,19.10
2019-03-08T10:37:06.395Z,19.52
2019-03-08T10:42:12.456Z,13.18
2019-03-08T10:47:32.419Z,18.42
2019-03-08T10:52:38.810Z,23.05
2019-03-08T10:57:58.841Z,21.65
2019-03-08T11:03:08.017Z,14.20
2019-03-08T11:08:14.150Z,11.40
2019-03-08T11:13:23.607Z,12.65
2019-03-08T11:18:26.941Z,5.87
2019-03-08T11:23:36.319Z,8.20
2019-03-08T11:28:42.152Z,8.40
2019-03-08T11:33:51.757Z,12.60
2019-03-08T11:38:57.573Z,7.20
2019-03-08T11:44:00.943Z,9.65
2019-03-08T11:49:05.942Z,10.48
2019-03-08T11:54:15.900Z,12.63
2019-03-08T11:59:19.472Z,9.40
2019-03-08T12:04:28.418Z,8.68
2019-03-08T12:09:31.852Z,8.93
2019-03-08T12:14:37.977Z,10.45
2019-03-08T12:19:41.187Z,7.30
2019-03-08T12:24:50.343Z,9.05
2019-03-08T12:29:53.568Z,9.75
2019-03-08T12:35:16.750Z,6.65
2019-03-08T12:40:20.185Z,10.38
2019-03-08T12:45:32.611Z,9.20
2019-03-08T12:50:42.407Z,12.58
2019-03-08T12:55:45.722Z,7.97
2019-03-08T13:00:55.162Z,8.10
2019-03-08T13:06:00.327Z,10.18
2019-03-08T13:11:01.943Z,4.67
2019-03-08T13:16:03.633Z,5.15
2019-03-08T13:21:04.976Z,6.55
2019-03-08T13:26:06.394Z,10.25
2019-03-08T13:31:07.979Z,7.80
2019-03-08T13:36:09.496Z,6.97
2019-03-08T13:41:10.967Z,8.00
2019-03-08T13:46:12.871Z,4.67
2019-03-08T13:51:14.247Z,8.58
2019-03-08T13:56:15.554Z,10.68
2019-03-08T14:01:17.057Z,11.48
2019-03-08T14:06:18.468Z,6.53
2019-03-08T14:11:20.162Z,5.83
2019-03-08T14:16:21.637Z,6.70
2019-03-08T14:21:23.198Z,8.80
2019-03-08T14:26:24.699Z,11.00
2019-03-08T14:31:28.123Z,12.88
2019-03-08T14:36:29.726Z,13.72
2019-03-08T14:41:45.309Z,13.13
2019-03-08T14:46:48.946Z,11.10
2019-03-08T14:51:50.451Z,12.98
2019-03-08T14:56:51.925Z,11.90
2019-03-08T15:01:53.543Z,15.32
2019-03-08T15:06:54.963Z,13.88
2019-03-08T15:11:59.571Z,13.93
2019-03-08T15:17:08.687Z,10.43
2019-03-08T15:22:07.741Z,18.00
2019-03-08T15:27:09.221Z,15.55
2019-03-08T15:32:10.808Z,9.95
2019-03-08T15:37:12.344Z,14.20
2019-03-08T15:42:14.002Z,12.80
2019-03-08T15:47:23.331Z,14.28
2019-03-08T15:52:20.747Z,15.48
2019-03-08T15:57:22.160Z,15.75
2019-03-08T16:02:23.712Z,16.05
2019-03-08T16:07:27.105Z,10.60
2019-03-08T16:12:28.421Z,12.50
2019-03-08T16:17:29.890Z,15.90
2019-03-08T16:22:31.481Z,10.40
2019-03-08T16:27:33.042Z,13.10
2019-03-08T16:32:48.653Z,15.55
2019-03-08T16:38:10.220Z,13.65
2019-03-08T16:43:35.083Z,13.03
2019-03-08T16:48:40.374Z,15.45
2019-03-08T16:53:55.458Z,15.10
2019-03-08T16:59:07.310Z,11.20
2019-03-08T17:04:18.386Z,12.63
2019-03-08T17:09:38.620Z,12.47
2019-03-08T17:14:58.852Z,14.73
2019-03-08T17:20:07.965Z,13.78
2019-03-08T17:25:20.567Z,16.42
2019-03-08T17:30:32.930Z,15.68
2019-03-08T17:35:53.435Z,10.43
2019-03-08T17:41:09.092Z,11.38
2019-03-08T17:46:16.316Z,13.58
2019-03-08T17:51:19.697Z,8.33
2019-03-08T17:56:39.687Z,11.48
2019-03-08T18:01:43.431Z,14.83
2019-03-08T18:06:47.519Z,9.95
2019-03-08T18:11:54.017Z,8.98
2019-03-08T18:17:04.093Z,12.70
2019-03-08T18:22:17.177Z,14.03
2019-03-08T18:27:20.651Z,17.87
2019-03-08T18:32:28.148Z,11.12
2019-03-08T18:37:47.769Z,13.05
2019-03-08T18:42:51.080Z,10.60
2019-03-08T18:48:12.490Z,12.98
2019-03-08T18:53:15.972Z,9.95
2019-03-08T18:58:25.462Z,12.00
2019-03-08T19:03:34.625Z,11.50
2019-03-08T19:08:38.191Z,13.45
2019-03-08T19:13:53.580Z,13.65
2019-03-08T19:19:11.983Z,14.43
2019-03-08T19:24:15.344Z,10.80
2019-03-08T19:29:24.514Z,15.70
2019-03-08T19:34:27.959Z,12.20
2019-03-08T19:39:34.335Z,13.93
2019-03-08T19:44:40.179Z,9.58
2019-03-08T19:50:01.175Z,14.75
2019-03-08T19:55:23.080Z,13.90
2019-03-08T20:00:41.773Z,16.80
2019-03-08T20:05:45.216Z,16.15
2019-03-08T20:11:05.458Z,8.10
2019-03-08T20:16:08.791Z,9.95
2019-03-08T20:21:18.263Z,18.55
2019-03-08T20:26:27.646Z,17.77
2019-03-08T20:31:34.081Z,9.75
2019-03-08T20:36:40.108Z,9.50
2019-03-08T20:41:49.479Z,11.35
2019-03-08T20:46:52.838Z,13.43
2019-03-08T20:51:56.702Z,11.50
2019-03-08T20:56:58.749Z,9.55
2019-03-08T21:02:00.189Z,9.88
2019-03-08T21:07:02.286Z,10.68
2019-03-08T21:12:04.013Z,10.72
2019-03-08T21:17:08.644Z,14.38
2019-03-08T21:22:10.307Z,15.63
2019-03-08T21:27:12.104Z,12.05
2019-03-08T21:32:13.655Z,13.90
2019-03-08T21:37:17.751Z,17.05
2019-03-08T21:42:19.155Z,15.45
2019-03-08T21:47:20.722Z,12.00
2019-03-08T21:52:22.208Z,12.50
2019-03-08T21:57:25.119Z,15.68
2019-03-08T22:02:26.528Z,13.10
2019-03-08T22:07:30.661Z,10.05
2019-03-08T22:12:52.081Z,15.90
2019-03-08T22:18:00.857Z,14.70
2019-03-08T22:23:02.860Z,13.25
2019-03-08T22:28:08.324Z,19.65
2019-03-08T22:33:09.766Z,11.25
2019-03-08T22:38:12.028Z,13.65
2019-03-08T22:43:13.429Z,12.75
2019-03-08T22:48:15.247Z,16.37
2019-03-08T22:53:17.343Z,20.40
2019-03-08T22:58:18.835Z,15.78
2019-03-08T23:03:23.182Z,14.53
2019-03-08T23:08:24.967Z,14.00
2019-03-08T23:13:26.370Z,15.05
2019-03-08T23:18:29.701Z,10.72
2019-03-08T23:23:31.601Z,7.70
2019-03-08T23:28:35.893Z,8.30
2019-03-08T23:33:37.825Z,15.28
2019-03-08T23:38:39.556Z,6.50
2019-03-08T23:43:40.860Z,11.55
2019-03-08T23:48:42.831Z,12.18
2019-03-08T23:53:44.212Z,15.28
2019-03-08T23:58:45.591Z,12.25
